createdAt,value
2022-10-10T00:00:22.553Z,6.4
2022-10-10T00:01:30.944Z,6.4
2022-10-10T00:02:39.398Z,4.3
2022-10-10T00:03:47.723Z,4.3
2022-10-10T00:04:56.076Z,4.3
2022-10-10T00:06:04.568Z,4.7
2022-10-10T00:07:12.900Z,4.7
2022-10-10T00:08:21.242Z,4.7
2022-10-10T00:09:29.745Z,5.5
2022-10-10T00:10:38.088Z,5.5
2022-10-10T00:11:46.447Z,5.5
2022-10-10T00:12:54.975Z,6.3
2022-10-10T00:14:03.299Z,6.3
2022-10-10T00:15:11.605Z,6.3
2022-10-10T00:16:20.141Z,4.7
2022-10-10T00:17:28.473Z,4.7
2022-10-10T00:18:36.777Z,4.7
2022-10-10T00:19:45.304Z,5
2022-10-10T00:20:53.666Z,5
2022-10-10T00:22:01.944Z,5
2022-10-10T00:23:10.489Z,5.2
2022-10-10T00:24:18.808Z,5.2
2022-10-10T00:25:27.163Z,5.2
2022-10-10T00:26:35.676Z,4.2
2022-10-10T00:27:44.001Z,4.2
2022-10-10T00:28:52.342Z,4.2
2022-10-10T00:30:00.854Z,4.1
2022-10-10T00:31:09.220Z,4.1
2022-10-10T00:32:17.530Z,4.1
2022-10-10T00:33:26.037Z,4.5
2022-10-10T00:34:34.377Z,4.5
2022-10-10T00:35:42.721Z,4.5
2022-10-10T00:36:51.258Z,3.9
2022-10-10T00:37:59.556Z,3.9
2022-10-10T00:39:07.897Z,3.9
2022-10-10T00:40:16.418Z,5.7
2022-10-10T00:41:24.761Z,5.7
2022-10-10T00:42:33.087Z,5.7
2022-10-10T00:43:41.605Z,6.1
2022-10-10T00:44:49.936Z,6.1
2022-10-10T00:45:58.281Z,6.1
2022-10-10T00:47:06.792Z,4.9
2022-10-10T00:48:15.113Z,4.9
2022-10-10T00:49:23.452Z,4.9
2022-10-10T00:50:31.971Z,5.7
2022-10-10T00:51:40.329Z,5.7
2022-10-10T00:52:48.962Z,5.7
2022-10-10T00:53:57.171Z,4.7
2022-10-10T00:55:05.503Z,4.7
2022-10-10T00:56:13.830Z,4.7
2022-10-10T00:57:22.346Z,5.8
2022-10-10T00:58:30.687Z,5.8
2022-10-10T00:59:39.019Z,5.8
2022-10-10T01:00:47.565Z,5.5
2022-10-10T01:01:55.883Z,5.5
2022-10-10T01:03:04.208Z,5.5
2022-10-10T01:04:12.720Z,3.8
2022-10-10T01:05:21.069Z,3.8
2022-10-10T01:06:29.400Z,3.8
2022-10-10T01:07:37.911Z,5.3
2022-10-10T01:08:46.399Z,5.3
2022-10-10T01:09:54.563Z,5.3
2022-10-10T01:11:03.077Z,6.7
2022-10-10T01:12:11.400Z,6.7
2022-10-10T01:13:19.723Z,6.7
2022-10-10T01:14:28.235Z,5.5
2022-10-10T01:15:36.581Z,5.5
2022-10-10T01:16:44.911Z,5.5
2022-10-10T01:17:53.424Z,6.1
2022-10-10T01:19:01.762Z,6.1
2022-10-10T01:20:10.103Z,6.1
2022-10-10T01:21:18.613Z,4.8
2022-10-10T01:22:26.945Z,4.8
2022-10-10T01:23:35.271Z,4.8
2022-10-10T01:24:43.822Z,5.5
2022-10-10T01:25:52.126Z,5.5
2022-10-10T01:27:00.476Z,5.5
2022-10-10T01:28:09.052Z,4.2
2022-10-10T01:29:17.334Z,4.2
2022-10-10T01:30:25.664Z,4.2
2022-10-10T01:31:34.174Z,4.4
2022-10-10T01:32:42.514Z,4.4
2022-10-10T01:33:50.847Z,4.4
2022-10-10T01:34:59.390Z,4.8
2022-10-10T01:36:07.719Z,4.8
2022-10-10T01:37:16.042Z,4.8
2022-10-10T01:38:24.605Z,4.8
2022-10-10T01:39:32.901Z,4.8
2022-10-10T01:40:41.257Z,4.8
2022-10-10T01:41:49.769Z,5.2
2022-10-10T01:42:58.063Z,5.2
2022-10-10T01:44:06.381Z,5.2
2022-10-10T01:45:14.943Z,4.9
2022-10-10T01:46:23.239Z,4.9
2022-10-10T01:47:31.576Z,4.9
2022-10-10T01:48:40.125Z,5.1
2022-10-10T01:49:48.432Z,5.1
2022-10-10T01:50:56.757Z,5.1
2022-10-10T01:52:05.295Z,4.3
2022-10-10T01:53:13.589Z,4.3
2022-10-10T01:54:21.930Z,4.3
2022-10-10T01:55:30.463Z,6.1
2022-10-10T01:56:38.797Z,6.1
2022-10-10T01:57:47.101Z,6.1
2022-10-10T01:58:55.656Z,4.7
2022-10-10T02:00:03.960Z,4.7
2022-10-10T02:01:12.359Z,4.7
2022-10-10T02:02:20.859Z,4.1
2022-10-10T02:03:29.151Z,4.1
2022-10-10T02:04:37.497Z,4.1
2022-10-10T02:05:46.055Z,4.6
2022-10-10T02:06:54.349Z,4.6
2022-10-10T02:08:02.680Z,4.6
2022-10-10T02:09:11.241Z,6.1
2022-10-10T02:10:19.540Z,6.1
2022-10-10T02:11:27.882Z,6.1
2022-10-10T02:12:36.449Z,4.5
2022-10-10T02:13:44.726Z,4.5
2022-10-10T02:14:53.057Z,4.5
2022-10-10T02:16:01.615Z,4.5
2022-10-10T02:17:09.912Z,4.5
2022-10-10T02:18:18.252Z,4.5
2022-10-10T02:19:26.793Z,6.3
2022-10-10T02:20:35.101Z,6.3
2022-10-10T02:21:43.434Z,6.3
2022-10-10T02:22:52.217Z,4.7
2022-10-10T02:24:00.290Z,4.7
2022-10-10T02:25:08.647Z,4.7
2022-10-10T02:26:17.187Z,6.1
2022-10-10T02:27:25.490Z,6.1
2022-10-10T02:28:33.866Z,6.1
2022-10-10T02:29:42.366Z,4.6
2022-10-10T02:30:50.674Z,4.6
2022-10-10T02:31:59.012Z,4.6
2022-10-10T02:33:07.552Z,6
2022-10-10T02:34:15.867Z,6
2022-10-10T02:35:24.191Z,6
2022-10-10T02:36:32.721Z,5.6
2022-10-10T02:37:41.072Z,5.6
2022-10-10T02:38:49.371Z,5.6
2022-10-10T02:39:57.921Z,4.8
2022-10-10T02:41:06.263Z,4.8
2022-10-10T02:42:14.560Z,4.8
2022-10-10T02:43:23.104Z,5.2
2022-10-10T02:44:31.532Z,5.2
2022-10-10T02:45:39.751Z,5.2
2022-10-10T02:46:48.282Z,5
2022-10-10T02:47:56.604Z,5
2022-10-10T02:49:04.918Z,5
2022-10-10T02:50:13.456Z,4.6
2022-10-10T02:51:21.796Z,4.6
2022-10-10T02:52:30.136Z,4.6
2022-10-10T02:53:38.669Z,5.6
2022-10-10T02:54:47.018Z,5.6
2022-10-10T02:55:55.313Z,5.6
2022-10-10T02:57:03.846Z,3.9
2022-10-10T02:58:12.176Z,3.9
2022-10-10T02:59:20.492Z,3.9
2022-10-10T03:00:29.052Z,6.5
2022-10-10T03:01:37.354Z,6.5
2022-10-10T03:02:45.656Z,6.5
2022-10-10T03:03:54.194Z,4.6
2022-10-10T03:05:03.330Z,4.6
2022-10-10T03:06:10.829Z,4.6
2022-10-10T03:07:19.368Z,5
2022-10-10T03:08:27.715Z,5
2022-10-10T03:09:36.022Z,5
2022-10-10T03:10:44.546Z,5.6
2022-10-10T03:11:52.850Z,5.6
2022-10-10T03:13:01.167Z,5.6
2022-10-10T03:14:09.707Z,5.4
2022-10-10T03:15:18.034Z,5.4
2022-10-10T03:16:26.362Z,5.4
2022-10-10T03:17:34.877Z,5
2022-10-10T03:18:43.212Z,5
2022-10-10T03:19:51.521Z,5
2022-10-10T03:21:00.065Z,6.8
2022-10-10T03:22:08.392Z,6.8
2022-10-10T03:23:16.734Z,6.8
2022-10-10T03:24:25.247Z,4
2022-10-10T03:25:33.587Z,4
2022-10-10T03:26:41.931Z,4
2022-10-10T03:27:50.428Z,5
2022-10-10T03:28:58.776Z,5
2022-10-10T03:30:07.120Z,5
2022-10-10T03:31:15.618Z,5.6
2022-10-10T03:32:23.971Z,5.6
2022-10-10T03:33:32.294Z,5.6
2022-10-10T03:34:40.807Z,5.3
2022-10-10T03:35:49.131Z,5.3
2022-10-10T03:36:57.475Z,5.3
2022-10-10T03:38:05.976Z,5.3
2022-10-10T03:39:14.317Z,5.3
2022-10-10T03:40:22.662Z,5.3
2022-10-10T03:41:31.161Z,5
2022-10-10T03:42:39.490Z,5
2022-10-10T03:43:47.805Z,5
2022-10-10T03:44:56.331Z,6.4
2022-10-10T03:46:04.657Z,6.4
2022-10-10T03:47:12.984Z,6.4
2022-10-10T03:48:21.502Z,5.7
2022-10-10T03:49:29.816Z,5.7
2022-10-10T03:50:38.152Z,5.7
2022-10-10T03:51:46.666Z,4.9
2022-10-10T03:52:54.999Z,4.9
2022-10-10T03:54:03.353Z,4.9
2022-10-10T03:55:11.858Z,4.1
2022-10-10T03:56:20.191Z,4.1
2022-10-10T03:57:28.530Z,4.1
2022-10-10T03:58:37.038Z,4.9
2022-10-10T03:59:45.364Z,4.9
2022-10-10T04:00:53.715Z,4.9
2022-10-10T04:02:02.202Z,5.5
2022-10-10T04:03:10.526Z,5.5
2022-10-10T04:04:18.895Z,5.5
2022-10-10T04:05:27.372Z,5.4
2022-10-10T04:06:35.695Z,5.4
2022-10-10T04:07:44.021Z,5.4
2022-10-10T04:08:52.540Z,4.6
2022-10-10T04:10:00.874Z,4.6
2022-10-10T04:11:09.190Z,4.6
2022-10-10T04:12:17.707Z,4.1
2022-10-10T04:13:26.034Z,4.1
2022-10-10T04:14:34.368Z,4.1
2022-10-10T04:15:42.880Z,6.2
2022-10-10T04:16:51.206Z,6.2
2022-10-10T04:17:59.526Z,6.2
2022-10-10T04:19:08.045Z,5.9
2022-10-10T04:20:16.394Z,5.9
2022-10-10T04:21:24.690Z,5.9
2022-10-10T04:22:33.198Z,6.2
2022-10-10T04:23:41.529Z,6.2
2022-10-10T04:24:49.859Z,6.2
2022-10-10T04:25:58.372Z,5.5
2022-10-10T04:27:06.700Z,5.5
2022-10-10T04:28:15.055Z,5.5
2022-10-10T04:29:23.537Z,4.8
2022-10-10T04:30:31.868Z,4.8
2022-10-10T04:31:40.184Z,4.8
2022-10-10T04:32:48.920Z,7.1
2022-10-10T04:33:57.046Z,7.1
2022-10-10T04:35:05.375Z,7.1
2022-10-10T04:36:13.940Z,5.1
2022-10-10T04:37:22.217Z,5.1
2022-10-10T04:38:30.536Z,5.1
2022-10-10T04:39:39.084Z,5.4
2022-10-10T04:40:47.383Z,5.4
2022-10-10T04:41:55.706Z,5.4
2022-10-10T04:43:04.266Z,6.1
2022-10-10T04:44:12.558Z,6.1
2022-10-10T04:45:20.877Z,6.1
2022-10-10T04:46:29.411Z,5.9
2022-10-10T04:47:37.716Z,5.9
2022-10-10T04:48:46.049Z,5.9
2022-10-10T04:49:54.590Z,5.3
2022-10-10T04:51:02.923Z,5.3
2022-10-10T04:52:11.283Z,5.3
2022-10-10T04:53:19.801Z,6.2
2022-10-10T04:54:28.135Z,6.2
2022-10-10T04:55:36.445Z,6.2
2022-10-10T04:56:44.968Z,7.3
2022-10-10T04:57:53.309Z,7.3
2022-10-10T04:59:01.602Z,7.3
2022-10-10T05:00:10.140Z,6.8
2022-10-10T05:01:18.493Z,6.8
2022-10-10T05:02:26.771Z,6.8
2022-10-10T05:03:35.301Z,5.2
2022-10-10T05:04:43.622Z,5.2
2022-10-10T05:05:51.927Z,5.2
2022-10-10T05:07:00.451Z,6
2022-10-10T05:08:08.824Z,6
2022-10-10T05:09:17.105Z,6
2022-10-10T05:10:25.649Z,4.4
2022-10-10T05:11:33.985Z,4.4
2022-10-10T05:12:42.279Z,4.4
2022-10-10T05:13:50.824Z,5.7
2022-10-10T05:14:59.146Z,5.7
2022-10-10T05:16:07.449Z,5.7
2022-10-10T05:17:15.984Z,6.8
2022-10-10T05:18:24.335Z,6.8
2022-10-10T05:19:32.625Z,6.8
2022-10-10T05:20:41.153Z,7.7
2022-10-10T05:21:49.504Z,7.7
2022-10-10T05:22:57.802Z,7.7
2022-10-10T05:24:06.367Z,12.4
2022-10-10T05:25:14.672Z,12.4
2022-10-10T05:26:22.973Z,12.4
2022-10-10T05:27:31.506Z,8
2022-10-10T05:28:39.854Z,8
2022-10-10T05:29:48.174Z,8
2022-10-10T05:30:56.713Z,5.4
2022-10-10T05:32:09.290Z,5.4
2022-10-10T05:33:13.358Z,5.4
2022-10-10T05:34:21.895Z,7
2022-10-10T05:35:30.224Z,7
2022-10-10T05:36:38.523Z,7
2022-10-10T05:37:47.056Z,6.1
2022-10-10T05:38:55.405Z,6.1
2022-10-10T05:40:03.729Z,6.1
2022-10-10T05:41:12.239Z,7.5
2022-10-10T05:42:20.563Z,7.5
2022-10-10T05:43:28.871Z,7.5
2022-10-10T05:44:37.407Z,7.7
2022-10-10T05:45:45.731Z,7.7
2022-10-10T05:46:54.033Z,7.7
2022-10-10T05:48:02.580Z,6.7
2022-10-10T05:49:10.899Z,6.7
2022-10-10T05:50:19.228Z,6.7
2022-10-10T05:51:27.743Z,6.9
2022-10-10T05:52:36.067Z,6.9
2022-10-10T05:53:44.407Z,6.9
2022-10-10T05:54:52.914Z,5.7
2022-10-10T05:56:01.289Z,5.7
2022-10-10T05:57:12.748Z,5.7
2022-10-10T05:58:18.098Z,6.3
2022-10-10T05:59:26.432Z,6.3
2022-10-10T06:00:34.754Z,6.3
2022-10-10T06:01:43.264Z,7.9
2022-10-10T06:02:51.830Z,7.9
2022-10-10T06:03:59.903Z,7.9
2022-10-10T06:05:08.419Z,6.3
2022-10-10T06:06:16.749Z,6.3
2022-10-10T06:07:29.311Z,6.3
2022-10-10T06:08:33.596Z,8.9
2022-10-10T06:09:41.926Z,8.9
2022-10-10T06:10:50.240Z,8.9
2022-10-10T06:11:58.776Z,8
2022-10-10T06:13:07.082Z,8
2022-10-10T06:14:15.412Z,8
2022-10-10T06:15:23.926Z,9.3
2022-10-10T06:16:32.265Z,9.3
2022-10-10T06:17:40.587Z,9.3
2022-10-10T06:18:49.140Z,7.3
2022-10-10T06:19:57.423Z,7.3
2022-10-10T06:21:05.748Z,7.3
2022-10-10T06:22:14.319Z,6
2022-10-10T06:23:22.628Z,6
2022-10-10T06:24:30.960Z,6
2022-10-10T06:25:41.132Z,7.1
2022-10-10T06:26:47.805Z,7.1
2022-10-10T06:27:56.156Z,7.1
2022-10-10T06:29:04.678Z,5.6
2022-10-10T06:30:12.977Z,5.6
2022-10-10T06:31:21.304Z,5.6
2022-10-10T06:32:29.831Z,5.6
2022-10-10T06:33:38.143Z,5.6
2022-10-10T06:34:46.464Z,5.6
2022-10-10T06:35:55.007Z,8.4
2022-10-10T06:37:03.308Z,8.4
2022-10-10T06:38:11.644Z,8.4
2022-10-10T06:39:20.188Z,5.2
2022-10-10T06:40:28.492Z,5.2
2022-10-10T06:41:36.817Z,5.2
2022-10-10T06:42:45.372Z,7.7
2022-10-10T06:43:53.713Z,7.7
2022-10-10T06:45:02.002Z,7.7
2022-10-10T06:46:10.541Z,5.3
2022-10-10T06:47:18.845Z,5.3
2022-10-10T06:48:27.189Z,5.3
2022-10-10T06:49:35.733Z,5.2
2022-10-10T06:50:44.037Z,5.2
2022-10-10T06:51:52.378Z,5.2
2022-10-10T06:53:00.940Z,6.2
2022-10-10T06:54:09.225Z,6.2
2022-10-10T06:55:17.556Z,6.2
2022-10-10T06:56:27.703Z,6.1
2022-10-10T06:57:34.416Z,6.1
2022-10-10T06:58:42.735Z,6.1
2022-10-10T06:59:51.358Z,10
2022-10-10T07:00:59.570Z,10
2022-10-10T07:02:07.903Z,10
2022-10-10T07:03:16.442Z,9.9
2022-10-10T07:04:24.748Z,9.9
2022-10-10T07:05:33.087Z,9.9
2022-10-10T07:06:41.638Z,35
2022-10-10T07:07:49.955Z,35
2022-10-10T07:08:58.293Z,35
2022-10-10T07:10:06.833Z,9.3
2022-10-10T07:11:15.136Z,9.3
2022-10-10T07:12:23.467Z,9.3
2022-10-10T07:13:32.017Z,5.7
2022-10-10T07:14:40.322Z,5.7
2022-10-10T07:15:48.675Z,5.7
2022-10-10T07:16:57.192Z,5.3
2022-10-10T07:18:05.499Z,5.3
2022-10-10T07:19:13.832Z,5.3
2022-10-10T07:20:22.385Z,5.4
2022-10-10T07:21:30.693Z,5.4
2022-10-10T07:22:39.023Z,5.4
2022-10-10T07:23:47.578Z,4.8
2022-10-10T07:24:55.884Z,4.8
2022-10-10T07:26:04.228Z,4.8
2022-10-10T07:27:12.770Z,5.2
2022-10-10T07:28:21.111Z,5.2
2022-10-10T07:29:29.422Z,5.2
2022-10-10T07:30:37.960Z,5.2
2022-10-10T07:31:46.289Z,5.2
2022-10-10T07:32:54.621Z,5.2
2022-10-10T07:34:03.174Z,4.6
2022-10-10T07:35:11.478Z,4.6
2022-10-10T07:36:19.890Z,4.6
2022-10-10T07:37:28.365Z,5.3
2022-10-10T07:38:36.667Z,5.3
2022-10-10T07:39:45.015Z,5.3
2022-10-10T07:40:53.549Z,5.3
2022-10-10T07:42:01.877Z,5.3
2022-10-10T07:43:10.183Z,5.3
2022-10-10T07:44:18.711Z,5.8
2022-10-10T07:45:27.017Z,5.8
2022-10-10T07:46:35.349Z,5.8
2022-10-10T07:47:43.942Z,6.5
2022-10-10T07:48:52.222Z,6.5
2022-10-10T07:50:00.547Z,6.5
2022-10-10T07:51:09.105Z,5.1
2022-10-10T07:52:17.411Z,5.1
2022-10-10T07:53:25.743Z,5.1
2022-10-10T07:54:34.302Z,6.3
2022-10-10T07:55:42.598Z,6.3
2022-10-10T07:56:50.939Z,6.3
2022-10-10T07:58:00.082Z,7.7
2022-10-10T07:59:07.806Z,7.7
2022-10-10T08:00:16.140Z,7.7
2022-10-10T08:01:24.773Z,7.3
2022-10-10T08:02:33.003Z,7.3
2022-10-10T08:03:41.366Z,7.3
2022-10-10T08:04:49.887Z,5.9
2022-10-10T08:05:58.194Z,5.9
2022-10-10T08:07:06.519Z,5.9
2022-10-10T08:08:15.098Z,4.8
2022-10-10T08:09:23.401Z,4.8
2022-10-10T08:10:31.733Z,4.8
2022-10-10T08:11:40.272Z,5.7
2022-10-10T08:12:48.585Z,5.7
2022-10-10T08:13:56.921Z,5.7
2022-10-10T08:15:05.487Z,9.5
2022-10-10T08:16:13.803Z,9.5
2022-10-10T08:17:22.094Z,9.5
2022-10-10T08:18:30.631Z,7.6
2022-10-10T08:19:39.184Z,7.6
2022-10-10T08:20:47.241Z,7.6
2022-10-10T08:21:55.790Z,9.6
2022-10-10T08:23:04.151Z,9.6
2022-10-10T08:24:12.454Z,9.6
2022-10-10T08:25:20.989Z,8.9
2022-10-10T08:26:29.323Z,8.9
2022-10-10T08:27:37.661Z,8.9
2022-10-10T08:28:46.257Z,9.4
2022-10-10T08:29:54.547Z,9.4
2022-10-10T08:31:04.182Z,9.4
2022-10-10T08:32:11.412Z,9.6
2022-10-10T08:33:19.753Z,9.6
2022-10-10T08:34:28.059Z,9.6
2022-10-10T08:35:36.656Z,8.5
2022-10-10T08:36:44.968Z,8.5
2022-10-10T08:37:53.272Z,8.5
2022-10-10T08:39:01.815Z,7.6
2022-10-10T08:40:10.146Z,7.6
2022-10-10T08:41:18.451Z,7.6
2022-10-10T08:42:27.013Z,9.6
2022-10-10T08:43:35.349Z,9.6
2022-10-10T08:44:43.666Z,9.6
2022-10-10T08:45:52.222Z,12.6
2022-10-10T08:47:00.552Z,12.6
2022-10-10T08:48:08.875Z,12.6
2022-10-10T08:49:17.417Z,10.9
2022-10-10T08:50:25.754Z,10.9
2022-10-10T08:51:34.092Z,10.9
2022-10-10T08:52:42.626Z,9.5
2022-10-10T08:53:50.969Z,9.5
2022-10-10T08:54:59.276Z,9.5
2022-10-10T08:56:07.840Z,10.2
2022-10-10T08:57:16.197Z,10.2
2022-10-10T08:58:24.505Z,10.2
2022-10-10T08:59:33.061Z,10.2
2022-10-10T09:00:41.448Z,10.2
2022-10-10T09:02:17.371Z,10.2
2022-10-10T09:02:58.395Z,12.4
2022-10-10T09:04:06.599Z,12.4
2022-10-10T09:05:14.904Z,12.4
2022-10-10T09:06:23.466Z,10.4
2022-10-10T09:07:31.844Z,10.4
2022-10-10T09:08:40.121Z,10.4
2022-10-10T09:09:48.713Z,13.6
2022-10-10T09:10:57.359Z,13.6
2022-10-10T09:12:05.324Z,13.6
2022-10-10T09:13:13.868Z,13.7
2022-10-10T09:14:22.221Z,13.7
2022-10-10T09:15:30.530Z,13.7
2022-10-10T09:16:39.093Z,12.3
2022-10-10T09:17:47.430Z,12.3
2022-10-10T09:18:55.732Z,12.3
2022-10-10T09:20:04.288Z,11.7
2022-10-10T09:21:12.680Z,11.7
2022-10-10T09:22:21.002Z,11.7
2022-10-10T09:23:29.588Z,11.6
2022-10-10T09:24:41.152Z,11.6
2022-10-10T09:25:46.205Z,11.6
2022-10-10T09:26:54.766Z,13.6
2022-10-10T09:28:03.112Z,13.6
2022-10-10T09:29:11.417Z,13.6
2022-10-10T09:30:19.970Z,15.1
2022-10-10T09:31:28.327Z,15.1
2022-10-10T09:32:36.630Z,15.1
2022-10-10T09:33:45.185Z,11.6
2022-10-10T09:34:53.544Z,11.6
2022-10-10T09:36:01.853Z,11.6
2022-10-10T09:37:13.672Z,13.5
2022-10-10T09:38:18.747Z,13.5
2022-10-10T09:39:27.070Z,13.5
2022-10-10T09:40:35.590Z,12.5
2022-10-10T09:41:43.956Z,12.5
2022-10-10T09:42:52.274Z,12.5
2022-10-10T09:44:00.783Z,12.4
2022-10-10T09:45:09.103Z,12.4
2022-10-10T09:46:17.426Z,12.4
2022-10-10T09:47:25.938Z,10.8
2022-10-10T09:48:34.252Z,10.8
2022-10-10T09:49:42.566Z,10.8
2022-10-10T09:50:51.086Z,10.7
2022-10-10T09:51:59.404Z,10.7
2022-10-10T09:53:07.721Z,10.7
2022-10-10T09:54:16.234Z,10.7
2022-10-10T09:55:24.686Z,10.7
2022-10-10T09:56:32.872Z,10.7
2022-10-10T09:57:41.392Z,10.7
2022-10-10T09:58:49.711Z,10.7
2022-10-10T10:00:00.965Z,10.7
2022-10-10T10:01:06.604Z,10.3
2022-10-10T10:02:14.866Z,10.3
2022-10-10T10:03:23.178Z,10.3
2022-10-10T10:04:31.698Z,8.8
2022-10-10T10:05:40.022Z,8.8
2022-10-10T10:06:48.330Z,8.8
2022-10-10T10:07:56.861Z,11.8
2022-10-10T10:09:05.174Z,11.8
2022-10-10T10:10:13.496Z,11.8
2022-10-10T10:11:22.050Z,9.3
2022-10-10T10:12:30.347Z,9.3
2022-10-10T10:13:38.658Z,9.3
2022-10-10T10:14:47.190Z,9.1
2022-10-10T10:15:55.511Z,9.1
2022-10-10T10:17:03.824Z,9.1
2022-10-10T10:18:12.346Z,9.4
2022-10-10T10:19:20.666Z,9.4
2022-10-10T10:20:28.979Z,9.4
2022-10-10T10:21:37.494Z,10.1
2022-10-10T10:22:45.836Z,10.1
2022-10-10T10:23:54.123Z,10.1
2022-10-10T10:25:02.647Z,8
2022-10-10T10:26:10.999Z,8
2022-10-10T10:27:19.340Z,8
2022-10-10T10:28:27.874Z,7.7
2022-10-10T10:29:36.149Z,7.7
2022-10-10T10:30:44.480Z,7.7
2022-10-10T10:31:52.996Z,10.2
2022-10-10T10:33:01.313Z,10.2
2022-10-10T10:34:09.632Z,10.2
2022-10-10T10:35:18.154Z,8.5
2022-10-10T10:36:26.476Z,8.5
2022-10-10T10:37:34.796Z,8.5
2022-10-10T10:38:43.312Z,9.4
2022-10-10T10:39:51.633Z,9.4
2022-10-10T10:40:59.971Z,9.4
2022-10-10T10:42:08.500Z,9.6
2022-10-10T10:43:16.822Z,9.6
2022-10-10T10:44:25.115Z,9.6
2022-10-10T10:45:33.695Z,8.4
2022-10-10T10:46:42.034Z,8.4
2022-10-10T10:47:50.352Z,8.4
2022-10-10T10:48:58.885Z,8.9
2022-10-10T10:50:07.195Z,8.9
2022-10-10T10:51:15.518Z,8.9
2022-10-10T10:52:24.074Z,9.1
2022-10-10T10:53:35.063Z,9.1
2022-10-10T10:54:45.567Z,9.1
2022-10-10T10:55:52.807Z,9.3
2022-10-10T10:57:06.021Z,9.3
2022-10-10T10:58:49.047Z,9.3
2022-10-10T11:01:22.791Z,10.1
2022-10-10T11:02:57.307Z,8.7
2022-10-10T11:05:15.479Z,8.7
2022-10-10T11:05:16.923Z,8.7
2022-10-10T11:06:08.421Z,11.3
2022-10-10T11:07:19.304Z,11.3
2022-10-10T11:08:24.965Z,11.3
2022-10-10T11:09:50.307Z,9.5
2022-10-10T11:10:41.817Z,9.5
2022-10-10T11:11:50.140Z,9.5
2022-10-10T11:12:58.690Z,10.5
2022-10-10T11:14:06.994Z,10.5
2022-10-10T11:15:15.355Z,10.5
2022-10-10T11:16:43.880Z,9.6
2022-10-10T11:17:36.992Z,9.6
2022-10-10T11:18:41.042Z,9.6
2022-10-10T11:19:49.584Z,10.1
2022-10-10T11:20:58.114Z,10.1
2022-10-10T11:22:06.237Z,10.1
2022-10-10T11:23:14.776Z,9.4
2022-10-10T11:24:23.120Z,9.4
2022-10-10T11:25:31.428Z,9.4
2022-10-10T11:26:39.965Z,10
2022-10-10T11:27:48.710Z,10
2022-10-10T11:28:58.755Z,10
2022-10-10T11:30:07.292Z,8.4
2022-10-10T11:31:17.809Z,8.4
2022-10-10T11:32:25.970Z,8.4
2022-10-10T11:33:34.523Z,8.9
2022-10-10T11:34:42.851Z,8.9
2022-10-10T11:35:51.188Z,8.9
2022-10-10T11:36:59.748Z,8.4
2022-10-10T11:38:08.066Z,8.4
2022-10-10T11:39:16.420Z,8.4
2022-10-10T11:40:24.961Z,5.9
2022-10-10T11:41:33.274Z,5.9
2022-10-10T11:42:41.619Z,5.9
2022-10-10T11:43:50.170Z,6.2
2022-10-10T11:44:58.488Z,6.2
2022-10-10T11:46:07.022Z,6.2
2022-10-10T11:47:15.425Z,7.9
2022-10-10T11:48:23.722Z,7.9
2022-10-10T11:49:32.070Z,7.9
2022-10-10T11:50:40.623Z,5.8
2022-10-10T11:51:48.944Z,5.8
2022-10-10T11:52:57.327Z,5.8
2022-10-10T11:54:05.879Z,6.9
2022-10-10T11:55:14.198Z,6.9
2022-10-10T11:56:22.542Z,6.9
2022-10-10T11:57:31.123Z,5.5
2022-10-10T11:58:39.458Z,5.5
2022-10-10T11:59:47.823Z,5.5
2022-10-10T12:00:56.392Z,5.4
2022-10-10T12:02:04.759Z,5.4
2022-10-10T12:03:13.331Z,5.4
2022-10-10T12:04:22.093Z,7.1
2022-10-10T12:05:31.154Z,7.1
2022-10-10T12:06:43.360Z,7.1
2022-10-10T12:07:53.634Z,6.2
2022-10-10T12:09:02.904Z,6.2
2022-10-10T12:10:11.971Z,6.2
2022-10-10T12:11:22.164Z,6.1
2022-10-10T12:12:31.618Z,6.1
2022-10-10T12:13:39.956Z,6.1
2022-10-10T12:14:48.498Z,6.2
2022-10-10T12:15:56.829Z,6.2
2022-10-10T12:17:05.152Z,6.2
2022-10-10T12:18:13.727Z,7.4
2022-10-10T12:19:22.109Z,7.4
2022-10-10T12:20:30.380Z,7.4
2022-10-10T12:21:38.941Z,5.7
2022-10-10T12:22:47.303Z,5.7
2022-10-10T12:23:55.649Z,5.7
2022-10-10T12:25:04.207Z,5.7
2022-10-10T12:26:13.350Z,5.7
2022-10-10T12:27:21.682Z,5.7
2022-10-10T12:28:30.369Z,5.9
2022-10-10T12:29:38.701Z,5.9
2022-10-10T12:30:46.964Z,5.9
2022-10-10T12:31:55.508Z,5.9
2022-10-10T12:33:03.872Z,5.9
2022-10-10T12:34:12.203Z,5.9
2022-10-10T12:35:20.836Z,6.4
2022-10-10T12:36:29.131Z,6.4
2022-10-10T12:37:37.496Z,6.4
2022-10-10T12:38:46.025Z,5.4
2022-10-10T12:39:54.378Z,5.4
2022-10-10T12:41:03.031Z,5.4
2022-10-10T12:42:11.246Z,6.9
2022-10-10T12:43:19.589Z,6.9
2022-10-10T12:44:27.929Z,6.9
2022-10-10T12:45:36.486Z,7.9
2022-10-10T12:46:44.832Z,7.9
2022-10-10T12:48:04.824Z,7.9
2022-10-10T12:49:01.730Z,5
2022-10-10T12:50:10.061Z,5
2022-10-10T12:51:18.526Z,5
2022-10-10T12:52:26.967Z,5.2
2022-10-10T12:53:35.296Z,5.2
2022-10-10T12:54:43.649Z,5.2
2022-10-10T12:55:52.204Z,7.9
2022-10-10T12:57:00.541Z,7.9
2022-10-10T12:58:08.977Z,7.9
2022-10-10T12:59:17.415Z,5.3
2022-10-10T13:00:25.754Z,5.3
2022-10-10T13:01:34.126Z,5.3
2022-10-10T13:02:42.662Z,7.5
2022-10-10T13:03:51.003Z,7.5
2022-10-10T13:04:59.404Z,7.5
2022-10-10T13:06:07.870Z,8.7
2022-10-10T13:07:16.243Z,8.7
2022-10-10T13:08:24.547Z,8.7
2022-10-10T13:09:35.302Z,6.1
2022-10-10T13:10:41.433Z,6.1
2022-10-10T13:11:49.792Z,6.1
2022-10-10T13:12:58.355Z,6.3
2022-10-10T13:14:06.704Z,6.3
2022-10-10T13:15:15.032Z,6.3
2022-10-10T13:16:23.570Z,5.9
2022-10-10T13:17:31.912Z,5.9
2022-10-10T13:18:40.258Z,5.9
2022-10-10T13:19:48.807Z,5.9
2022-10-10T13:20:57.158Z,5.9
2022-10-10T13:22:05.507Z,5.9
2022-10-10T13:23:14.099Z,5.8
2022-10-10T13:24:22.392Z,5.8
2022-10-10T13:25:30.735Z,5.8
2022-10-10T13:26:39.286Z,6.9
2022-10-10T13:27:47.690Z,6.9
2022-10-10T13:28:56.021Z,6.9
2022-10-10T13:30:04.578Z,6.6
2022-10-10T13:31:12.901Z,6.6
2022-10-10T13:32:21.254Z,6.6
2022-10-10T13:33:29.831Z,6.3
2022-10-10T13:34:38.170Z,6.3
2022-10-10T13:35:46.505Z,6.3
2022-10-10T13:36:55.050Z,6.8
2022-10-10T13:38:03.409Z,6.8
2022-10-10T13:39:11.765Z,6.8
2022-10-10T13:40:20.310Z,8.1
2022-10-10T13:41:28.648Z,8.1
2022-10-10T13:42:37.002Z,8.1
2022-10-10T13:43:45.543Z,7.1
2022-10-10T13:44:53.917Z,7.1
2022-10-10T13:46:02.249Z,7.1
2022-10-10T13:47:10.812Z,7.5
2022-10-10T13:48:19.177Z,7.5
2022-10-10T13:49:27.535Z,7.5
2022-10-10T13:50:36.084Z,7.9
2022-10-10T13:51:44.429Z,7.9
2022-10-10T13:52:52.793Z,7.9
2022-10-10T13:54:01.340Z,9.5
2022-10-10T13:55:09.696Z,9.5
2022-10-10T13:56:18.033Z,9.5
2022-10-10T13:57:26.604Z,7.5
2022-10-10T13:58:34.937Z,7.5
2022-10-10T13:59:43.266Z,7.5
2022-10-10T14:00:51.806Z,8.2
2022-10-10T14:02:00.256Z,8.2
2022-10-10T14:03:08.520Z,8.2
2022-10-10T14:04:17.049Z,11
2022-10-10T14:05:25.405Z,11
2022-10-10T14:06:33.736Z,11
2022-10-10T14:07:42.304Z,6.3
2022-10-10T14:08:50.638Z,6.3
2022-10-10T14:09:58.992Z,6.3
2022-10-10T14:11:07.630Z,7.2
2022-10-10T14:12:15.906Z,7.2
2022-10-10T14:13:24.242Z,7.2
2022-10-10T14:14:32.802Z,7.7
2022-10-10T14:15:41.162Z,7.7
2022-10-10T14:16:49.611Z,7.7
2022-10-10T14:17:58.225Z,8.7
2022-10-10T14:19:06.551Z,8.7
2022-10-10T14:20:14.922Z,8.7
2022-10-10T14:21:23.468Z,8.8
2022-10-10T14:22:31.822Z,8.8
2022-10-10T14:23:40.160Z,8.8
2022-10-10T14:24:48.717Z,7.4
2022-10-10T14:25:57.044Z,7.4
2022-10-10T14:27:05.433Z,7.4
2022-10-10T14:28:13.961Z,8.5
2022-10-10T14:29:22.270Z,8.5
2022-10-10T15:04:13.105Z,0
2022-10-10T15:05:21.456Z,0
2022-10-10T15:06:29.815Z,0
2022-10-10T15:07:38.366Z,8.1
2022-10-10T15:08:46.721Z,8.1
2022-10-10T15:11:04.040Z,9.6
2022-10-10T15:12:11.931Z,9.6
2022-10-10T15:13:20.337Z,9.6
2022-10-10T15:14:28.842Z,7.5
2022-10-10T15:15:37.302Z,7.5
2022-10-10T15:16:45.637Z,7.5
2022-10-10T15:17:54.188Z,9.7
2022-10-10T15:19:02.535Z,9.7
2022-10-10T15:20:10.897Z,9.7
2022-10-10T15:21:19.427Z,9.9
2022-10-10T15:22:27.763Z,9.9
2022-10-10T15:23:36.099Z,9.9
2022-10-10T15:24:44.645Z,12.2
2022-10-10T15:25:52.991Z,12.2
2022-10-10T15:27:01.357Z,12.2
2022-10-10T15:28:09.973Z,12.5
2022-10-10T15:29:18.254Z,12.5
2022-10-10T15:30:26.623Z,12.5
2022-10-10T15:31:35.175Z,7.6
2022-10-10T15:32:43.516Z,7.6
2022-10-10T15:33:51.841Z,7.6
2022-10-10T15:35:00.360Z,6.4
2022-10-10T15:36:10.150Z,6.4
2022-10-10T15:37:17.021Z,6.4
2022-10-10T15:38:25.568Z,10.1
2022-10-10T15:39:33.902Z,10.1
2022-10-10T15:40:42.256Z,10.1
2022-10-10T15:41:50.782Z,8.5
2022-10-10T15:42:59.144Z,8.5
2022-10-10T15:44:07.456Z,8.5
2022-10-10T15:45:26.500Z,8.6
2022-10-10T15:46:24.312Z,8.6
2022-10-10T15:47:32.656Z,8.6
2022-10-10T15:48:41.181Z,7.8
2022-10-10T15:49:49.513Z,7.8
2022-10-10T15:50:57.843Z,7.8
2022-10-10T15:52:06.422Z,8.8
2022-10-10T15:53:14.721Z,8.8
2022-10-10T15:54:23.054Z,8.8
2022-10-10T15:55:31.583Z,7.9
2022-10-10T15:56:39.908Z,7.9
2022-10-10T15:57:48.223Z,7.9
2022-10-10T15:58:56.761Z,8
2022-10-10T16:00:05.088Z,8
2022-10-10T16:01:13.500Z,8
2022-10-10T16:02:21.953Z,7.2
2022-10-10T16:03:30.272Z,7.2
2022-10-10T16:04:38.604Z,7.2
2022-10-10T16:05:47.168Z,9.9
2022-10-10T16:08:03.853Z,9.9
2022-10-10T16:09:27.459Z,6.7
2022-10-10T16:10:20.677Z,6.7
2022-10-10T16:11:28.998Z,6.7
2022-10-10T16:12:37.550Z,8.4
2022-10-10T16:13:45.888Z,8.4
2022-10-10T16:14:54.204Z,8.4
2022-10-10T16:16:03.989Z,10.3
2022-10-10T16:17:11.949Z,10.3
2022-10-10T16:18:20.370Z,10.3
2022-10-10T16:19:28.931Z,10.7
2022-10-10T16:20:44.152Z,10.7